createdAt,value
2023-01-12T00:00:00.000Z,7.84
2023-01-12T00:15:00.000Z,7.46
2023-01-12T00:30:00.000Z,7.18
2023-01-12T00:45:00.000Z,7.72
2023-01-12T01:00:00.000Z,4.56
2023-01-12T01:15:00.000Z,4.35
2023-01-12T01:30:00.000Z,4.46
2023-01-12T01:45:00.000Z,4.78
2023-01-12T02:00:00.000Z,5.04
2023-01-12T02:15:00.000Z,4.74
2023-01-12T02:30:00.000Z,4.58
2023-01-12T02:45:00.000Z,5.13
2023-01-12T03:00:00.000Z,5.93
2023-01-12T03:15:00.000Z,5.41
2023-01-12T03:30:00.000Z,6.39
2023-01-12T03:45:00.000Z,8.48
2023-01-12T04:00:00.000Z,12.15
2023-01-12T04:15:00.000Z,13
2023-01-12T04:30:00.000Z,13.91
2023-01-12T04:45:00.000Z,15.52
2023-01-12T05:00:00.000Z,14.39
2023-01-12T05:15:00.000Z,14.61
2023-01-12T05:30:00.000Z,13.52
2023-01-12T05:45:00.000Z,13.58
2023-01-12T06:00:00.000Z,13.52
2023-01-12T06:15:00.000Z,11.95
2023-01-12T06:30:00.000Z,11.69
2023-01-12T06:45:00.000Z,14.31
2023-01-12T07:00:00.000Z,10.77
2023-01-12T07:15:00.000Z,10.2
2023-01-12T07:30:00.000Z,10.31
2023-01-12T07:45:00.000Z,10.09
2023-01-12T08:00:00.000Z,10.12
2023-01-12T08:15:00.000Z,9.51
2023-01-12T08:30:00.000Z,10.53
2023-01-12T08:45:00.000Z,10.18
2023-01-12T09:00:00.000Z,9.89
2023-01-12T09:15:00.000Z,10.29
2023-01-12T09:30:00.000Z,11.15
2023-01-12T09:45:00.000Z,10.28
2023-01-12T10:00:00.000Z,9.48
2023-01-12T10:15:00.000Z,12.02
2023-01-12T10:30:00.000Z,9.6
2023-01-12T10:45:00.000Z,8.05
2023-01-12T11:00:00.000Z,7.6
2023-01-12T11:15:00.000Z,7.26
2023-01-12T11:30:00.000Z,7.2
2023-01-12T11:45:00.000Z,6.35
2023-01-12T12:00:00.000Z,6.58
2023-01-12T12:15:00.000Z,5.72
2023-01-12T12:30:00.000Z,5.73
2023-01-12T12:45:00.000Z,6.88
2023-01-12T13:00:00.000Z,6.25
2023-01-12T13:15:00.000Z,5.64
2023-01-12T13:30:00.000Z,7.53
2023-01-12T13:45:00.000Z,7.93
2023-01-12T14:00:00.000Z,12.69
2023-01-12T14:15:00.000Z,12.4
2023-01-12T14:30:00.000Z,12.35
2023-01-12T14:45:00.000Z,15.01
2023-01-12T15:00:00.000Z,15.96
2023-01-12T15:15:00.000Z,18.45
2023-01-12T15:30:00.000Z,17.42
2023-01-12T15:45:00.000Z,14.66
2023-01-12T16:00:00.000Z,12.27
2023-01-12T16:15:00.000Z,13.19
2023-01-12T16:30:00.000Z,13.01
2023-01-12T16:45:00.000Z,12.96
2023-01-12T17:00:00.000Z,12.36
2023-01-12T17:15:00.000Z,11.14
2023-01-12T17:30:00.000Z,13.72
2023-01-12T17:45:00.000Z,11.14
2023-01-12T18:00:00.000Z,11.41
2023-01-12T18:15:00.000Z,13.06
2023-01-12T18:30:00.000Z,13.73
2023-01-12T18:45:00.000Z,10.91
2023-01-12T19:00:00.000Z,12.32
2023-01-12T19:15:00.000Z,11.07
2023-01-12T19:30:00.000Z,10.76
2023-01-12T19:45:00.000Z,10.82
2023-01-12T20:00:00.000Z,11.8
2023-01-12T20:15:00.000Z,10.36
2023-01-12T20:30:00.000Z,11.07
2023-01-12T20:45:00.000Z,10.74
2023-01-12T21:00:00.000Z,11.34
2023-01-12T21:15:00.000Z,11.14
2023-01-12T21:30:00.000Z,10.78
2023-01-12T21:45:00.000Z,11.66
2023-01-12T22:00:00.000Z,11.09
2023-01-12T22:15:00.000Z,10.52
2023-01-12T22:30:00.000Z,11.02
2023-01-12T22:45:00.000Z,10.29
2023-01-12T23:00:00.000Z,10.36
2023-01-12T23:15:00.000Z,10.16
2023-01-12T23:30:00.000Z,9.88
2023-01-12T23:45:00.000Z,9.24
